Basinger, Florida
Current Conditions -  °F | °C
As of 5:55 PM on Tuesday 27 Jan 2015 (Local Time) from KOBE Reporting Station
Clear Clear  
Wind Chill: 63°   Ceiling: Unl
Heat Index: 63°   Visibility: 10mi
Dew Point: 46°   Wind: 13mph
Humidity: 55%   Direction: 260°W
Pressure: 29.98"   Gusts: 18mph
Location:  27.4513°N, 80.9004°W
Report Text: KOBE 272255Z AUTO 26011G16KT 10SM CLR 17/08 A2998 RMK AO2
Loading
Personal Weather Stations






























Interactive Weather Map New forecast layout! Learn more

10-Day Weather Forecast

Advertisements
Track Severe Weather on mobile